CEB3192 RPMO-RPLL
Flight info
| Callsign | CEB3192 |
|---|---|
| Flight time | 1h 7m |
| Altitude | 39000 |
| Route | ALDIN B472 IBAGO IBAG5R |
| Aircraft | A320/M-VGDW/C |
Departure
| Time | 2026-05-05 23:07 |
|---|---|
| Airport | Labo Airport (RPMO) |
Arrival
| Time | 2026-05-06 00:14 |
|---|---|
| Airport | Ninoy Aquino International Airport (RPLL) |
| Time | Latitude | Longitude | Altitude | Speed | Heading |
|---|---|---|---|---|---|
| 2026-05-05 22:54 | 8.18135 | 123.84462 | 91 ft | 0 kts | 91° |
| 2026-05-05 23:00 | 8.18137 | 123.84466 | 91 ft | 0 kts | 46° |
| 2026-05-05 23:01 | 8.18142 | 123.84464 | 91 ft | 1 kts | 320° |
| 2026-05-05 23:01 | 8.18144 | 123.84450 | 91 ft | 2 kts | 272° |
| 2026-05-05 23:01 | 8.18140 | 123.84425 | 91 ft | 6 kts | 240° |
| 2026-05-05 23:01 | 8.18096 | 123.84386 | 92 ft | 9 kts | 219° |
| 2026-05-05 23:02 | 8.18069 | 123.84333 | 93 ft | 10 kts | 266° |
| 2026-05-05 23:02 | 8.18046 | 123.84264 | 94 ft | 12 kts | 218° |
| 2026-05-05 23:02 | 8.17961 | 123.84209 | 93 ft | 16 kts | 212° |
| 2026-05-05 23:02 | 8.17856 | 123.84141 | 94 ft | 19 kts | 213° |
| 2026-05-05 23:03 | 8.17734 | 123.84061 | 94 ft | 21 kts | 213° |
| 2026-05-05 23:03 | 8.17596 | 123.83971 | 94 ft | 24 kts | 213° |
| 2026-05-05 23:03 | 8.17445 | 123.83875 | 94 ft | 26 kts | 212° |
| 2026-05-05 23:03 | 8.17287 | 123.83770 | 94 ft | 25 kts | 213° |
| 2026-05-05 23:04 | 8.17171 | 123.83695 | 94 ft | 11 kts | 209° |
| 2026-05-05 23:04 | 8.17135 | 123.83688 | 94 ft | 1 kts | 204° |
| 2026-05-05 23:04 | 8.17143 | 123.83679 | 94 ft | 1 kts | 349° |
| 2026-05-05 23:04 | 8.17159 | 123.83687 | 94 ft | 4 kts | 28° |
| 2026-05-05 23:05 | 8.17164 | 123.83690 | 94 ft | 0 kts | 34° |
| 2026-05-05 23:06 | 8.17191 | 123.83708 | 94 ft | 24 kts | 33° |
| 2026-05-05 23:06 | 8.17554 | 123.83945 | 95 ft | 96 kts | 33° |
| 2026-05-05 23:06 | 8.18287 | 123.84423 | 112 ft | 150 kts | 32° |
| 2026-05-05 23:07 | 8.19188 | 123.84986 | 595 ft | 154 kts | 32° |
| 2026-05-05 23:07 | 8.20143 | 123.85537 | 1149 ft | 161 kts | 20° |
| 2026-05-05 23:07 | 8.21215 | 123.85799 | 1852 ft | 158 kts | 13° |
| 2026-05-05 23:07 | 8.22340 | 123.86038 | 2312 ft | 172 kts | 13° |
| 2026-05-05 23:08 | 8.23552 | 123.86296 | 2709 ft | 189 kts | 13° |
| 2026-05-05 23:08 | 8.24906 | 123.86586 | 3146 ft | 207 kts | 13° |
| 2026-05-05 23:08 | 8.26406 | 123.86909 | 3529 ft | 230 kts | 13° |
| 2026-05-05 23:08 | 8.28036 | 123.87214 | 3995 ft | 250 kts | 4° |
| 2026-05-05 23:09 | 8.29792 | 123.86802 | 4553 ft | 268 kts | 330° |
| 2026-05-05 23:09 | 8.31327 | 123.85709 | 5354 ft | 274 kts | 323° |
| 2026-05-05 23:09 | 8.32846 | 123.84507 | 6154 ft | 279 kts | 323° |
| 2026-05-05 23:09 | 8.34389 | 123.83322 | 6954 ft | 282 kts | 325° |
| 2026-05-05 23:10 | 8.35994 | 123.82137 | 7727 ft | 286 kts | 326° |
| 2026-05-05 23:10 | 8.37619 | 123.80975 | 8462 ft | 290 kts | 326° |
| 2026-05-05 23:10 | 8.39293 | 123.79801 | 9187 ft | 294 kts | 327° |
| 2026-05-05 23:10 | 8.40994 | 123.78619 | 9885 ft | 299 kts | 327° |
| 2026-05-05 23:11 | 8.42734 | 123.77419 | 10475 ft | 307 kts | 327° |
| 2026-05-05 23:11 | 8.44555 | 123.76170 | 10805 ft | 324 kts | 327° |
| 2026-05-05 23:11 | 8.46473 | 123.74856 | 11107 ft | 341 kts | 327° |
| 2026-05-05 23:11 | 8.48493 | 123.73473 | 11418 ft | 357 kts | 327° |
| 2026-05-05 23:12 | 8.50578 | 123.72045 | 11952 ft | 364 kts | 327° |
| 2026-05-05 23:12 | 8.52686 | 123.70599 | 12600 ft | 367 kts | 327° |
| 2026-05-05 23:12 | 8.54827 | 123.69132 | 13233 ft | 370 kts | 327° |
| 2026-05-05 23:12 | 8.56947 | 123.67680 | 13819 ft | 373 kts | 327° |
| 2026-05-05 23:13 | 8.59113 | 123.66197 | 14396 ft | 377 kts | 327° |
| 2026-05-05 23:13 | 8.61304 | 123.64696 | 14973 ft | 380 kts | 327° |
| 2026-05-05 23:13 | 8.63504 | 123.63190 | 15529 ft | 383 kts | 327° |
| 2026-05-05 23:13 | 8.65770 | 123.61637 | 16072 ft | 387 kts | 327° |
| 2026-05-05 23:14 | 8.68004 | 123.60107 | 16585 ft | 391 kts | 327° |
| 2026-05-05 23:14 | 8.70305 | 123.58530 | 17107 ft | 394 kts | 327° |
| 2026-05-05 23:14 | 8.72599 | 123.56958 | 17599 ft | 398 kts | 327° |
| 2026-05-05 23:14 | 8.74929 | 123.55362 | 18102 ft | 400 kts | 327° |
| 2026-05-05 23:15 | 8.77287 | 123.53746 | 18601 ft | 403 kts | 327° |
| 2026-05-05 23:15 | 8.79631 | 123.52138 | 19082 ft | 406 kts | 327° |
| 2026-05-05 23:15 | 8.81987 | 123.50524 | 19549 ft | 409 kts | 327° |
| 2026-05-05 23:15 | 8.84347 | 123.48906 | 19995 ft | 411 kts | 327° |
| 2026-05-05 23:16 | 8.86727 | 123.47273 | 20437 ft | 414 kts | 327° |
| 2026-05-05 23:16 | 8.89144 | 123.45615 | 20863 ft | 417 kts | 327° |
| 2026-05-05 23:16 | 8.91541 | 123.43971 | 21278 ft | 419 kts | 327° |
| 2026-05-05 23:16 | 8.93988 | 123.42292 | 21695 ft | 422 kts | 327° |
| 2026-05-05 23:17 | 8.96440 | 123.40608 | 22097 ft | 425 kts | 327° |
| 2026-05-05 23:17 | 8.98898 | 123.38921 | 22514 ft | 427 kts | 327° |
| 2026-05-05 23:17 | 9.01381 | 123.37216 | 22953 ft | 428 kts | 327° |
| 2026-05-05 23:17 | 9.03868 | 123.35509 | 23391 ft | 429 kts | 327° |
| 2026-05-05 23:18 | 9.06334 | 123.33811 | 23804 ft | 431 kts | 327° |
| 2026-05-05 23:18 | 9.08837 | 123.32089 | 24194 ft | 433 kts | 328° |
| 2026-05-05 23:18 | 9.11412 | 123.30472 | 24580 ft | 434 kts | 330° |
| 2026-05-05 23:18 | 9.14105 | 123.28996 | 24962 ft | 435 kts | 334° |
| 2026-05-05 23:19 | 9.16838 | 123.27676 | 25327 ft | 437 kts | 336° |
| 2026-05-05 23:19 | 9.19630 | 123.26368 | 25676 ft | 439 kts | 336° |
| 2026-05-05 23:19 | 9.22444 | 123.25056 | 26017 ft | 441 kts | 336° |
| 2026-05-05 23:19 | 9.25271 | 123.23738 | 26354 ft | 443 kts | 336° |
| 2026-05-05 23:20 | 9.28073 | 123.22429 | 26685 ft | 445 kts | 335° |
| 2026-05-05 23:20 | 9.30914 | 123.21099 | 27028 ft | 446 kts | 335° |
| 2026-05-05 23:20 | 9.33737 | 123.19776 | 27362 ft | 448 kts | 335° |
| 2026-05-05 23:20 | 9.36594 | 123.18437 | 27693 ft | 449 kts | 335° |
| 2026-05-05 23:21 | 9.39445 | 123.17100 | 27994 ft | 451 kts | 335° |
| 2026-05-05 23:21 | 9.42300 | 123.15762 | 28283 ft | 453 kts | 335° |
| 2026-05-05 23:21 | 9.45190 | 123.14406 | 28560 ft | 455 kts | 335° |
| 2026-05-05 23:21 | 9.48088 | 123.13046 | 28832 ft | 457 kts | 335° |
| 2026-05-05 23:22 | 9.51000 | 123.11679 | 29088 ft | 459 kts | 335° |
| 2026-05-05 23:22 | 9.53916 | 123.10310 | 29347 ft | 461 kts | 335° |
| 2026-05-05 23:22 | 9.56880 | 123.08919 | 29601 ft | 463 kts | 335° |
| 2026-05-05 23:22 | 9.59812 | 123.07542 | 29851 ft | 465 kts | 335° |
| 2026-05-05 23:23 | 9.62778 | 123.06149 | 30102 ft | 466 kts | 335° |
| 2026-05-05 23:23 | 9.65740 | 123.04758 | 30422 ft | 466 kts | 335° |
| 2026-05-05 23:23 | 9.68669 | 123.03384 | 30772 ft | 465 kts | 335° |
| 2026-05-05 23:23 | 9.71611 | 123.02003 | 31122 ft | 464 kts | 335° |
| 2026-05-05 23:24 | 9.74549 | 123.00622 | 31463 ft | 463 kts | 335° |
| 2026-05-05 23:24 | 9.77507 | 122.99231 | 31802 ft | 463 kts | 335° |
| 2026-05-05 23:24 | 9.80410 | 122.97865 | 32129 ft | 462 kts | 335° |
| 2026-05-05 23:24 | 9.83372 | 122.96471 | 32461 ft | 461 kts | 335° |
| 2026-05-05 23:25 | 9.86258 | 122.95113 | 32820 ft | 460 kts | 335° |
| 2026-05-05 23:25 | 9.89208 | 122.93726 | 33185 ft | 459 kts | 335° |
| 2026-05-05 23:25 | 9.92089 | 122.92371 | 33555 ft | 458 kts | 335° |
| 2026-05-05 23:25 | 9.95016 | 122.90995 | 33916 ft | 457 kts | 335° |
| 2026-05-05 23:26 | 9.97886 | 122.89647 | 34265 ft | 456 kts | 335° |
| 2026-05-05 23:26 | 10.00779 | 122.88287 | 34606 ft | 454 kts | 335° |
| 2026-05-05 23:26 | 10.03674 | 122.86926 | 34928 ft | 453 kts | 334° |
| 2026-05-05 23:26 | 10.06551 | 122.85573 | 35234 ft | 452 kts | 334° |
| 2026-05-05 23:27 | 10.09428 | 122.84219 | 35519 ft | 452 kts | 334° |
| 2026-05-05 23:27 | 10.12297 | 122.82871 | 35787 ft | 451 kts | 334° |
| 2026-05-05 23:27 | 10.15178 | 122.81522 | 36040 ft | 451 kts | 334° |
| 2026-05-05 23:27 | 10.18021 | 122.80187 | 36269 ft | 451 kts | 334° |
| 2026-05-05 23:28 | 10.20895 | 122.78834 | 36489 ft | 450 kts | 334° |
| 2026-05-05 23:28 | 10.23759 | 122.77483 | 36711 ft | 450 kts | 334° |
| 2026-05-05 23:28 | 10.26613 | 122.76137 | 36922 ft | 450 kts | 335° |
| 2026-05-05 23:28 | 10.29462 | 122.74794 | 37120 ft | 449 kts | 335° |
| 2026-05-05 23:29 | 10.32349 | 122.73432 | 37278 ft | 450 kts | 334° |
| 2026-05-05 23:29 | 10.35208 | 122.72084 | 37408 ft | 451 kts | 334° |
| 2026-05-05 23:29 | 10.38078 | 122.70729 | 37534 ft | 451 kts | 334° |
| 2026-05-05 23:29 | 10.40944 | 122.69376 | 37668 ft | 452 kts | 334° |
| 2026-05-05 23:30 | 10.43828 | 122.68016 | 37789 ft | 453 kts | 334° |
| 2026-05-05 23:30 | 10.46664 | 122.66678 | 37901 ft | 453 kts | 334° |
| 2026-05-05 23:30 | 10.49546 | 122.65317 | 38019 ft | 453 kts | 334° |
| 2026-05-05 23:30 | 10.52424 | 122.63957 | 38123 ft | 454 kts | 334° |
| 2026-05-05 23:31 | 10.58185 | 122.61233 | 38313 ft | 455 kts | 334° |
| 2026-05-05 23:31 | 10.63985 | 122.58488 | 38497 ft | 456 kts | 334° |
| 2026-05-05 23:32 | 10.69779 | 122.55747 | 38671 ft | 456 kts | 334° |
| 2026-05-05 23:32 | 10.75624 | 122.52981 | 38828 ft | 457 kts | 334° |
| 2026-05-05 23:33 | 10.81418 | 122.50237 | 38893 ft | 458 kts | 334° |
| 2026-05-05 23:33 | 10.87270 | 122.47568 | 38900 ft | 458 kts | 336° |
| 2026-05-05 23:34 | 10.93186 | 122.45045 | 38910 ft | 458 kts | 336° |
| 2026-05-05 23:34 | 10.99103 | 122.42506 | 38923 ft | 458 kts | 336° |
| 2026-05-05 23:35 | 11.05029 | 122.39947 | 38935 ft | 458 kts | 336° |
| 2026-05-05 23:35 | 11.10893 | 122.37412 | 38941 ft | 458 kts | 336° |
| 2026-05-05 23:36 | 11.16779 | 122.34877 | 38947 ft | 458 kts | 335° |
| 2026-05-05 23:36 | 11.22640 | 122.32323 | 38950 ft | 458 kts | 335° |
| 2026-05-05 23:37 | 11.28521 | 122.29758 | 38951 ft | 458 kts | 335° |
| 2026-05-05 23:37 | 11.34360 | 122.27223 | 38954 ft | 457 kts | 335° |
| 2026-05-05 23:38 | 11.40303 | 122.24723 | 39038 ft | 457 kts | 336° |
| 2026-05-05 23:38 | 11.46095 | 122.22013 | 38959 ft | 457 kts | 335° |
| 2026-05-05 23:39 | 11.51969 | 122.19521 | 38938 ft | 457 kts | 336° |
| 2026-05-05 23:39 | 11.57892 | 122.16991 | 38927 ft | 457 kts | 335° |
| 2026-05-05 23:40 | 11.63741 | 122.14465 | 38921 ft | 456 kts | 335° |
| 2026-05-05 23:40 | 11.69589 | 122.11928 | 38920 ft | 455 kts | 335° |
| 2026-05-05 23:41 | 11.75458 | 122.09379 | 38919 ft | 456 kts | 335° |
| 2026-05-05 23:41 | 11.81307 | 122.06837 | 38916 ft | 456 kts | 335° |
| 2026-05-05 23:42 | 11.87156 | 122.04293 | 38909 ft | 456 kts | 335° |
| 2026-05-05 23:42 | 11.93035 | 122.01734 | 38903 ft | 455 kts | 335° |
| 2026-05-05 23:43 | 11.98859 | 121.99197 | 38899 ft | 454 kts | 335° |
| 2026-05-05 23:43 | 12.04641 | 121.96677 | 38898 ft | 454 kts | 335° |
| 2026-05-05 23:44 | 12.10487 | 121.94132 | 38899 ft | 454 kts | 335° |
| 2026-05-05 23:44 | 12.16305 | 121.91608 | 38902 ft | 455 kts | 335° |
| 2026-05-05 23:45 | 12.22144 | 121.89069 | 38902 ft | 455 kts | 335° |
| 2026-05-05 23:45 | 12.27969 | 121.86528 | 38903 ft | 455 kts | 335° |
| 2026-05-05 23:46 | 12.33850 | 121.83960 | 38905 ft | 455 kts | 335° |
| 2026-05-05 23:46 | 12.39669 | 121.81416 | 38470 ft | 448 kts | 335° |
| 2026-05-05 23:47 | 12.42516 | 121.80169 | 37811 ft | 446 kts | 335° |
| 2026-05-05 23:47 | 12.45378 | 121.78915 | 37066 ft | 445 kts | 335° |
| 2026-05-05 23:47 | 12.48219 | 121.77670 | 36256 ft | 445 kts | 335° |
| 2026-05-05 23:47 | 12.51074 | 121.76418 | 35395 ft | 447 kts | 335° |
| 2026-05-05 23:48 | 12.53968 | 121.75150 | 34503 ft | 449 kts | 336° |
| 2026-05-05 23:48 | 12.56864 | 121.73880 | 33581 ft | 451 kts | 336° |
| 2026-05-05 23:48 | 12.59742 | 121.72617 | 32630 ft | 454 kts | 336° |
| 2026-05-05 23:48 | 12.62649 | 121.71343 | 31721 ft | 457 kts | 336° |
| 2026-05-05 23:49 | 12.65617 | 121.70042 | 30774 ft | 460 kts | 336° |
| 2026-05-05 23:49 | 12.68568 | 121.68747 | 29810 ft | 463 kts | 336° |
| 2026-05-05 23:49 | 12.71514 | 121.67454 | 28958 ft | 463 kts | 336° |
| 2026-05-05 23:49 | 12.74516 | 121.66138 | 28360 ft | 457 kts | 336° |
| 2026-05-05 23:50 | 12.77430 | 121.64860 | 27767 ft | 452 kts | 336° |
| 2026-05-05 23:50 | 12.80326 | 121.63588 | 27149 ft | 449 kts | 336° |
| 2026-05-05 23:50 | 12.83213 | 121.62320 | 26525 ft | 445 kts | 336° |
| 2026-05-05 23:50 | 12.86033 | 121.61080 | 25918 ft | 442 kts | 336° |
| 2026-05-05 23:51 | 12.88875 | 121.59830 | 25302 ft | 439 kts | 336° |
| 2026-05-05 23:51 | 12.91696 | 121.58591 | 24700 ft | 436 kts | 336° |
| 2026-05-05 23:51 | 12.94456 | 121.57378 | 24116 ft | 433 kts | 336° |
| 2026-05-05 23:51 | 12.97280 | 121.56136 | 23539 ft | 430 kts | 337° |
| 2026-05-05 23:52 | 13.00027 | 121.54927 | 22972 ft | 426 kts | 337° |
| 2026-05-05 23:52 | 13.02755 | 121.53726 | 22427 ft | 423 kts | 337° |
| 2026-05-05 23:52 | 13.05465 | 121.52534 | 21874 ft | 420 kts | 337° |
| 2026-05-05 23:52 | 13.08141 | 121.51356 | 21323 ft | 417 kts | 337° |
| 2026-05-05 23:53 | 13.10792 | 121.50189 | 20794 ft | 413 kts | 337° |
| 2026-05-05 23:53 | 13.13440 | 121.49030 | 20250 ft | 410 kts | 338° |
| 2026-05-05 23:53 | 13.16066 | 121.47878 | 19710 ft | 407 kts | 338° |
| 2026-05-05 23:53 | 13.18664 | 121.46737 | 19170 ft | 404 kts | 338° |
| 2026-05-05 23:54 | 13.21265 | 121.45594 | 18608 ft | 402 kts | 338° |
| 2026-05-05 23:54 | 13.23826 | 121.44466 | 18061 ft | 399 kts | 338° |
| 2026-05-05 23:54 | 13.26401 | 121.43332 | 17511 ft | 397 kts | 338° |
| 2026-05-05 23:54 | 13.28945 | 121.42210 | 16978 ft | 393 kts | 338° |
| 2026-05-05 23:55 | 13.31452 | 121.41105 | 16487 ft | 390 kts | 338° |
| 2026-05-05 23:55 | 13.33933 | 121.40009 | 16093 ft | 385 kts | 338° |
| 2026-05-05 23:55 | 13.36425 | 121.38911 | 15936 ft | 385 kts | 338° |
| 2026-05-05 23:55 | 13.38907 | 121.37817 | 15934 ft | 386 kts | 338° |
| 2026-05-05 23:56 | 13.41410 | 121.36715 | 15928 ft | 386 kts | 338° |
| 2026-05-05 23:56 | 13.43881 | 121.35618 | 15936 ft | 386 kts | 338° |
| 2026-05-05 23:56 | 13.46361 | 121.34515 | 15935 ft | 386 kts | 337° |
| 2026-05-05 23:56 | 13.48844 | 121.33401 | 15934 ft | 385 kts | 337° |
| 2026-05-05 23:57 | 13.51312 | 121.32278 | 15940 ft | 386 kts | 334° |
| 2026-05-05 23:57 | 13.53644 | 121.30896 | 15937 ft | 387 kts | 326° |
| 2026-05-05 23:57 | 13.55799 | 121.29151 | 15930 ft | 388 kts | 318° |
| 2026-05-05 23:57 | 13.57708 | 121.27123 | 15928 ft | 389 kts | 313° |
| 2026-05-05 23:58 | 13.59508 | 121.25029 | 15742 ft | 387 kts | 311° |
| 2026-05-05 23:58 | 13.61286 | 121.22928 | 15515 ft | 386 kts | 311° |
| 2026-05-05 23:58 | 13.63038 | 121.20860 | 15277 ft | 384 kts | 311° |
| 2026-05-05 23:58 | 13.64807 | 121.18778 | 15038 ft | 383 kts | 311° |
| 2026-05-05 23:59 | 13.66560 | 121.16717 | 14813 ft | 381 kts | 311° |
| 2026-05-05 23:59 | 13.68299 | 121.14676 | 14572 ft | 380 kts | 311° |
| 2026-05-05 23:59 | 13.70059 | 121.12614 | 14330 ft | 379 kts | 312° |
| 2026-05-05 23:59 | 13.71816 | 121.10560 | 14081 ft | 377 kts | 312° |
| 2026-05-06 00:00 | 13.73555 | 121.08527 | 13555 ft | 379 kts | 312° |
| 2026-05-06 00:00 | 13.75300 | 121.06490 | 13063 ft | 375 kts | 312° |
| 2026-05-06 00:00 | 13.77010 | 121.04491 | 12630 ft | 370 kts | 312° |
| 2026-05-06 00:00 | 13.78713 | 121.02502 | 12119 ft | 368 kts | 312° |
| 2026-05-06 00:01 | 13.80392 | 121.00540 | 11612 ft | 365 kts | 313° |
| 2026-05-06 00:01 | 13.82312 | 120.98839 | 11077 ft | 360 kts | 332° |
| 2026-05-06 00:01 | 13.84640 | 120.97983 | 10628 ft | 352 kts | 352° |
| 2026-05-06 00:01 | 13.87025 | 120.97719 | 10439 ft | 339 kts | 356° |
| 2026-05-06 00:02 | 13.89376 | 120.97508 | 10252 ft | 328 kts | 356° |
| 2026-05-06 00:02 | 13.91614 | 120.97297 | 10076 ft | 317 kts | 356° |
| 2026-05-06 00:02 | 13.93777 | 120.97082 | 9898 ft | 307 kts | 356° |
| 2026-05-06 00:02 | 13.95893 | 120.96864 | 9667 ft | 300 kts | 356° |
| 2026-05-06 00:03 | 13.97954 | 120.96652 | 9335 ft | 297 kts | 356° |
| 2026-05-06 00:03 | 14.00005 | 120.96437 | 9035 ft | 292 kts | 356° |
| 2026-05-06 00:03 | 14.02031 | 120.96223 | 8750 ft | 288 kts | 356° |
| 2026-05-06 00:03 | 14.04014 | 120.96014 | 8465 ft | 283 kts | 356° |
| 2026-05-06 00:04 | 14.05995 | 120.95806 | 8182 ft | 279 kts | 356° |
| 2026-05-06 00:04 | 14.07923 | 120.95606 | 7908 ft | 275 kts | 356° |
| 2026-05-06 00:04 | 14.09822 | 120.95406 | 7633 ft | 270 kts | 356° |
| 2026-05-06 00:04 | 14.11693 | 120.95211 | 7364 ft | 266 kts | 356° |
| 2026-05-06 00:05 | 14.15355 | 120.94823 | 6887 ft | 259 kts | 356° |
| 2026-05-06 00:05 | 14.17165 | 120.94505 | 6622 ft | 263 kts | 343° |
| 2026-05-06 00:05 | 14.18821 | 120.93752 | 6346 ft | 262 kts | 332° |
| 2026-05-06 00:06 | 14.20412 | 120.92812 | 6063 ft | 261 kts | 330° |
| 2026-05-06 00:06 | 14.21982 | 120.91853 | 5781 ft | 260 kts | 331° |
| 2026-05-06 00:06 | 14.23562 | 120.90897 | 5510 ft | 259 kts | 331° |
| 2026-05-06 00:06 | 14.25134 | 120.89958 | 5241 ft | 258 kts | 331° |
| 2026-05-06 00:07 | 14.26700 | 120.89025 | 5118 ft | 257 kts | 332° |
| 2026-05-06 00:07 | 14.28255 | 120.88108 | 4965 ft | 258 kts | 332° |
| 2026-05-06 00:07 | 14.29816 | 120.87202 | 4748 ft | 254 kts | 332° |
| 2026-05-06 00:07 | 14.31360 | 120.86311 | 4532 ft | 248 kts | 333° |
| 2026-05-06 00:08 | 14.32850 | 120.85452 | 4286 ft | 244 kts | 333° |
| 2026-05-06 00:08 | 14.34335 | 120.84594 | 4035 ft | 240 kts | 333° |
| 2026-05-06 00:08 | 14.35788 | 120.83754 | 3788 ft | 236 kts | 333° |
| 2026-05-06 00:08 | 14.37202 | 120.82936 | 3548 ft | 232 kts | 334° |
| 2026-05-06 00:09 | 14.38700 | 120.82385 | 3288 ft | 223 kts | 4° |
| 2026-05-06 00:09 | 14.40108 | 120.82857 | 3096 ft | 209 kts | 41° |
| 2026-05-06 00:09 | 14.41033 | 120.83957 | 2995 ft | 196 kts | 60° |
| 2026-05-06 00:09 | 14.41672 | 120.85181 | 3032 ft | 192 kts | 64° |
| 2026-05-06 00:10 | 14.42271 | 120.86385 | 2891 ft | 182 kts | 63° |
| 2026-05-06 00:10 | 14.42859 | 120.87509 | 2664 ft | 177 kts | 62° |
| 2026-05-06 00:10 | 14.43455 | 120.88609 | 2445 ft | 170 kts | 61° |
| 2026-05-06 00:10 | 14.44017 | 120.89625 | 2247 ft | 155 kts | 62° |
| 2026-05-06 00:11 | 14.44532 | 120.90552 | 2045 ft | 145 kts | 62° |
| 2026-05-06 00:11 | 14.45035 | 120.91458 | 1876 ft | 146 kts | 62° |
| 2026-05-06 00:11 | 14.45536 | 120.92361 | 1710 ft | 141 kts | 62° |
| 2026-05-06 00:11 | 14.45808 | 120.92849 | 1592 ft | 136 kts | 61° |
| 2026-05-06 00:12 | 14.46235 | 120.93618 | 1438 ft | 134 kts | 62° |
| 2026-05-06 00:12 | 14.46697 | 120.94451 | 1273 ft | 135 kts | 63° |
| 2026-05-06 00:12 | 14.47166 | 120.95298 | 1103 ft | 135 kts | 60° |
| 2026-05-06 00:13 | 14.47642 | 120.96155 | 925 ft | 135 kts | 61° |
| 2026-05-06 00:13 | 14.48112 | 120.96999 | 774 ft | 136 kts | 59° |
| 2026-05-06 00:13 | 14.48598 | 120.97849 | 617 ft | 137 kts | 62° |
| 2026-05-06 00:13 | 14.49063 | 120.98707 | 445 ft | 137 kts | 62° |
| 2026-05-06 00:14 | 14.49535 | 120.99564 | 245 ft | 138 kts | 62° |
| 2026-05-06 00:14 | 14.50013 | 121.00424 | 92 ft | 135 kts | 61° |
| 2026-05-06 00:14 | 14.50417 | 121.01156 | 82 ft | 95 kts | 60° |
| 2026-05-06 00:14 | 14.50648 | 121.01571 | 82 ft | 44 kts | 60° |
| 2026-05-06 00:15 | 14.50786 | 121.01734 | 82 ft | 19 kts | 39° |
| 2026-05-06 00:15 | 14.50880 | 121.01788 | 82 ft | 9 kts | 350° |
| 2026-05-06 00:15 | 14.50924 | 121.01785 | 82 ft | 5 kts | 24° |
| 2026-05-06 00:15 | 14.50952 | 121.01825 | 82 ft | 9 kts | 64° |
| 2026-05-06 00:16 | 14.50990 | 121.01898 | 82 ft | 9 kts | 61° |
| 2026-05-06 00:16 | 14.51034 | 121.01920 | 82 ft | 10 kts | 331° |
| 2026-05-06 00:16 | 14.51104 | 121.01850 | 82 ft | 17 kts | 315° |
| 2026-05-06 00:16 | 14.51195 | 121.01755 | 82 ft | 19 kts | 314° |
| 2026-05-06 00:17 | 14.51308 | 121.01640 | 82 ft | 25 kts | 315° |